الصفحة الرئيسية
METAR-TAF:

METAR-TAF

مطار :

Aoba Island, فانواتو

دائرة عرض: 15-18-24S, خط طول: 167-58-02E, ارتفاع: 51 متر

مراقبة الطقس الحالي

تاريخ ووقت الإصدار 1ساعة و 50 دقيقة قبل الساعة 04:00UTC
ريح 11 عقدة من الشمال/الشمال الشرقي
درجة الحرارة
ضغط 988 hPa

METAR: NVSG 060400Z AUTO 02011KT //// // NCD ///// Q0988

زمن: 16:50 (05:50 UTC)

توقعات

تاريخ ووقت الإصدار 7ساعات و 30 دقيقة قبل الساعة 22:20UTC
التوقعات صالحة من06 الساعة 00 UTC إلى 06 الساعة 24 UTC
ريح 15 عقدة من الشرق تتزايد حتى 25 عقدة
الرؤية: 5000 متر
غيوم قليلة على ارتفاع 1000 قدم
غيوم مفككة على ارتفاع 2000 قدم
ملبد بالغيوم على ارتفاع 9000 قدم
غيوم متفرقة على ارتفاع 600 قدم
غيوم مفككة على ارتفاع 1800 قدم
غيوم متفرقة على ارتفاع 2000 قدم, مزنة ركامية.
ملبد بالغيوم على ارتفاع 6000 قدم
زخات من الأمطار الخفيفة, عاصفة رعدية, مطر

TAF: NVSG 052220Z 0600/0624 09015G25KT 9999 -SHRA FEW010 BKN020 OVC090 INTER 0600/0606 5000 TSRA SCT006 BKN018 SCT020CB OVC060

أرصاد الطقس والتوقعات من أكثر من 4000 مطار (تقارير الطقس للمطار METAR والتنبؤ بالطقس بالمطارTAF).

المحطات المتاحة هي النقط الصفراء والحمراء على الخريطة.

حرك المؤشر فوق النقطة لمعرفة اسم المحطة.

ثم انقر لمعرفة أرصاد وتوقعات الطقس.

لتغيير الخارطة: اضغط على الأزرار الخضراء مع رمز الصليب الأسود للتكبير. على الزر الأخضر مع شرطة للتصغير، أو على الأسهم الخضراء للخرائط المجاورة.


METAR-TAF: